createdAt,value
2018-11-12T00:00:31.620Z,69.94
2018-11-12T00:03:00.481Z,70.72
2018-11-12T00:05:29.377Z,70.79
2018-11-12T00:07:58.481Z,70.86
2018-11-12T00:10:27.729Z,70.09
2018-11-12T00:12:56.247Z,70.46
2018-11-12T00:15:25.171Z,70.96
2018-11-12T00:17:53.699Z,70.62
2018-11-12T00:20:22.231Z,70.76
2018-11-12T00:22:50.745Z,71.23
2018-11-12T00:25:19.437Z,70.85
2018-11-12T00:27:47.933Z,70.77
2018-11-12T00:30:18.841Z,70.90
2018-11-12T00:32:48.181Z,71.00
2018-11-12T00:35:16.709Z,70.91
2018-11-12T00:37:45.850Z,70.43
2018-11-12T00:40:15.873Z,70.99
2018-11-12T00:42:44.760Z,70.98
2018-11-12T00:45:13.873Z,70.77
2018-11-12T00:47:43.173Z,71.32
2018-11-12T00:50:13.002Z,71.24
2018-11-12T00:52:41.500Z,70.75
2018-11-12T00:55:11.848Z,70.76
2018-11-12T00:57:40.764Z,71.12
2018-11-12T01:00:13.980Z,70.58
2018-11-12T01:02:44.912Z,70.97
2018-11-12T01:05:13.741Z,70.49
2018-11-12T01:07:42.251Z,70.48
2018-11-12T01:10:12.591Z,70.86
2018-11-12T01:12:41.790Z,70.82
2018-11-12T01:15:13.412Z,71.02
2018-11-12T01:17:42.400Z,70.99
2018-11-12T01:20:12.065Z,70.87
2018-11-12T01:22:40.555Z,71.07
2018-11-12T01:25:10.220Z,71.62
2018-11-12T01:27:39.521Z,71.20
2018-11-12T01:30:11.480Z,71.01
2018-11-12T01:32:40.355Z,71.07
2018-11-12T01:35:10.152Z,71.42
2018-11-12T01:37:38.896Z,71.71
2018-11-12T01:40:08.900Z,71.83
2018-11-12T01:42:37.414Z,71.70
2018-11-12T01:45:08.464Z,71.45
2018-11-12T01:47:37.614Z,71.29
2018-11-12T01:50:08.180Z,71.62
2018-11-12T01:52:38.612Z,71.38
2018-11-12T01:55:08.318Z,71.77
2018-11-12T01:57:37.803Z,71.29
2018-11-12T02:00:10.188Z,71.58
2018-11-12T02:02:38.674Z,70.86
2018-11-12T02:05:08.998Z,71.19
2018-11-12T02:07:37.542Z,71.14
2018-11-12T02:10:07.496Z,71.55
2018-11-12T02:12:36.090Z,71.90
2018-11-12T02:15:05.424Z,71.41
2018-11-12T02:17:33.942Z,71.46
2018-11-12T02:20:02.464Z,71.55
2018-11-12T02:22:31.768Z,71.16
2018-11-12T02:25:00.291Z,71.46
2018-11-12T02:27:29.297Z,72.11
2018-11-12T02:29:58.185Z,72.18
2018-11-12T02:32:26.718Z,71.76
2018-11-12T02:34:55.221Z,71.98
2018-11-12T02:37:23.738Z,71.85
2018-11-12T02:39:52.237Z,72.03
2018-11-12T02:42:20.764Z,72.04
2018-11-12T02:44:49.300Z,72.45
2018-11-12T02:47:17.800Z,72.06
2018-11-12T02:49:46.328Z,72.05
2018-11-12T02:52:14.832Z,71.87
2018-11-12T02:54:43.380Z,72.22
2018-11-12T02:57:12.343Z,71.60
2018-11-12T02:59:41.626Z,72.02
2018-11-12T03:02:10.156Z,72.27
2018-11-12T03:04:38.707Z,71.90
2018-11-12T03:07:07.217Z,72.13
2018-11-12T03:09:36.142Z,72.59
2018-11-12T03:12:04.624Z,72.24
2018-11-12T03:14:33.804Z,72.18
2018-11-12T03:17:02.301Z,72.54
2018-11-12T03:19:30.829Z,71.83
2018-11-12T03:21:59.366Z,72.25
2018-11-12T03:24:27.865Z,72.20
2018-11-12T03:26:56.461Z,72.56
2018-11-12T03:29:25.001Z,72.53
2018-11-12T03:31:54.689Z,72.23
2018-11-12T03:34:23.236Z,71.85
2018-11-12T03:36:51.755Z,72.36
2018-11-12T03:39:20.251Z,72.33
2018-11-12T03:41:48.730Z,72.43
2018-11-12T03:44:17.651Z,72.56
2018-11-12T03:46:46.352Z,72.32
2018-11-12T03:49:15.356Z,72.84
2018-11-12T03:51:43.899Z,72.37
2018-11-12T03:54:12.642Z,72.60
2018-11-12T03:56:41.144Z,72.57
2018-11-12T03:59:09.681Z,72.29
2018-11-12T04:01:44.860Z,72.47
2018-11-12T04:04:14.981Z,72.30
2018-11-12T04:06:44.056Z,72.68
2018-11-12T04:09:13.012Z,72.35
2018-11-12T04:11:43.282Z,72.85
2018-11-12T04:14:12.569Z,72.74
2018-11-12T04:16:45.884Z,72.26
2018-11-12T04:19:14.793Z,72.19
2018-11-12T04:21:43.290Z,72.65
2018-11-12T04:24:12.667Z,72.26
2018-11-12T04:26:41.837Z,72.68
2018-11-12T04:29:10.477Z,72.40
2018-11-12T04:31:38.981Z,72.77
2018-11-12T04:34:08.463Z,71.99
2018-11-12T04:36:36.978Z,72.43
2018-11-12T04:39:08.961Z,71.83
2018-11-12T04:41:38.517Z,72.32
2018-11-12T04:44:07.065Z,72.03
2018-11-12T04:46:35.573Z,72.08
2018-11-12T04:49:04.204Z,71.78
2018-11-12T04:51:32.712Z,72.04
2018-11-12T04:54:01.213Z,71.47
2018-11-12T04:56:29.756Z,71.28
2018-11-12T04:58:59.009Z,71.92
2018-11-12T05:01:27.516Z,71.03
2018-11-12T05:03:56.054Z,71.66
2018-11-12T05:06:24.602Z,71.20
2018-11-12T05:08:53.157Z,71.75
2018-11-12T05:11:21.658Z,71.53
2018-11-12T05:13:50.184Z,71.21
2018-11-12T05:16:18.740Z,71.66
2018-11-12T05:18:47.296Z,71.30
2018-11-12T05:21:16.553Z,71.45
2018-11-12T05:23:47.064Z,72.49
2018-11-12T05:26:16.760Z,72.18
2018-11-12T05:28:45.332Z,72.23
2018-11-12T05:31:13.904Z,71.98
2018-11-12T05:33:43.269Z,71.96
2018-11-12T05:36:11.755Z,72.79
2018-11-12T05:38:40.284Z,72.18
2018-11-12T05:41:08.845Z,72.55
2018-11-12T05:43:37.898Z,72.35
2018-11-12T05:46:06.483Z,71.53
2018-11-12T05:48:35.359Z,71.40
2018-11-12T05:51:03.938Z,71.64
2018-11-12T05:53:32.980Z,71.21
2018-11-12T05:56:03.388Z,71.38
2018-11-12T05:58:32.823Z,71.68
2018-11-12T06:01:04.411Z,71.25
2018-11-12T06:03:34.812Z,71.47
2018-11-12T06:06:05.420Z,70.82
2018-11-12T06:08:35.347Z,70.51
2018-11-12T06:11:04.871Z,70.71
2018-11-12T06:13:34.736Z,70.96
2018-11-12T06:16:04.153Z,70.79
2018-11-12T06:18:33.460Z,71.29
2018-11-12T06:21:03.588Z,70.96
2018-11-12T06:23:32.845Z,70.62
2018-11-12T06:26:03.545Z,71.29
2018-11-12T06:28:34.406Z,71.40
2018-11-12T06:31:06.015Z,70.98
2018-11-12T06:33:35.732Z,70.56
2018-11-12T06:36:05.060Z,70.37
2018-11-12T06:38:35.758Z,71.10
2018-11-12T06:41:05.224Z,71.20
2018-11-12T06:43:35.642Z,71.09
2018-11-12T06:46:06.485Z,71.38
2018-11-12T06:48:37.182Z,71.38
2018-11-12T06:51:07.361Z,71.09
2018-11-12T06:53:35.936Z,70.85
2018-11-12T06:56:06.008Z,70.79
2018-11-12T06:58:36.135Z,70.55
2018-11-12T07:01:04.748Z,70.10
2018-11-12T07:03:33.258Z,70.22
2018-11-12T07:06:01.792Z,70.76
2018-11-12T07:08:30.308Z,70.17
2018-11-12T07:10:58.813Z,70.34
2018-11-12T07:13:27.458Z,69.38
2018-11-12T07:15:55.873Z,69.61
2018-11-12T07:18:25.304Z,69.55
2018-11-12T07:20:55.391Z,69.40
2018-11-12T07:23:23.960Z,69.25
2018-11-12T07:25:52.493Z,69.46
2018-11-12T07:28:21.049Z,68.53
2018-11-12T07:30:50.335Z,68.80
2018-11-12T07:33:18.863Z,67.95
2018-11-12T07:35:47.408Z,68.35
2018-11-12T07:38:15.942Z,68.35
2018-11-12T07:40:45.023Z,67.67
2018-11-12T07:43:13.576Z,67.76
2018-11-12T07:45:42.099Z,67.95
2018-11-12T07:48:10.641Z,67.68
2018-11-12T07:50:39.270Z,67.00
2018-11-12T07:53:07.804Z,67.42
2018-11-12T07:55:36.349Z,67.23
2018-11-12T07:58:05.001Z,65.26
2018-11-12T08:00:34.664Z,65.37
2018-11-12T08:03:07.649Z,63.13
2018-11-12T08:05:36.768Z,60.89
2018-11-12T08:08:06.244Z,58.92
2018-11-12T08:10:34.797Z,59.28
2018-11-12T08:13:03.321Z,59.88
2018-11-12T08:15:31.817Z,59.08
2018-11-12T08:18:00.401Z,57.14
2018-11-12T08:20:29.572Z,59.23
2018-11-12T08:22:58.959Z,58.51
2018-11-12T08:25:27.996Z,58.96
2018-11-12T08:27:56.828Z,60.19
2018-11-12T08:30:28.403Z,60.22
2018-11-12T08:32:58.387Z,60.50
2018-11-12T08:35:27.764Z,60.17
2018-11-12T08:37:56.693Z,59.38
2018-11-12T08:40:26.407Z,56.94
2018-11-12T08:42:54.796Z,57.71
2018-11-12T08:45:23.348Z,56.36
2018-11-12T08:47:52.980Z,56.30
2018-11-12T08:50:23.709Z,58.10
2018-11-12T08:52:53.154Z,56.41
2018-11-12T08:55:24.089Z,55.92
2018-11-12T08:57:54.001Z,56.60
2018-11-12T09:00:23.998Z,55.28
2018-11-12T09:02:52.596Z,55.54
2018-11-12T09:05:22.281Z,56.38
2018-11-12T09:07:52.141Z,56.34
2018-11-12T09:10:22.397Z,54.26
2018-11-12T09:12:51.020Z,53.67
2018-11-12T09:15:19.553Z,53.84
2018-11-12T09:17:48.753Z,55.03
2018-11-12T09:20:18.719Z,55.10
2018-11-12T09:22:47.332Z,54.65
2018-11-12T09:25:18.269Z,53.74
2018-11-12T09:27:46.826Z,51.32
2018-11-12T09:30:20.526Z,50.38
2018-11-12T09:32:49.096Z,51.09
2018-11-12T09:35:19.084Z,51.25
2018-11-12T09:37:48.917Z,50.98
2018-11-12T09:40:20.052Z,49.97
2018-11-12T09:42:48.879Z,47.11
2018-11-12T09:45:17.467Z,44.09
2018-11-12T09:47:46.431Z,46.89
2018-11-12T09:50:20.111Z,47.62
2018-11-12T09:52:52.831Z,48.63
2018-11-12T09:55:22.340Z,48.01
2018-11-12T09:57:55.756Z,47.94
2018-11-12T10:00:24.418Z,46.43
2018-11-12T10:02:54.014Z,47.31
2018-11-12T10:05:23.164Z,48.27
2018-11-12T10:07:53.673Z,47.25
2018-11-12T10:10:29.283Z,45.97
2018-11-12T10:12:57.392Z,43.13
2018-11-12T10:15:27.882Z,44.50
2018-11-12T10:17:55.824Z,43.49
2018-11-12T10:20:23.006Z,45.57
2018-11-12T10:22:51.925Z,44.79
2018-11-12T10:25:21.179Z,47.92
2018-11-12T10:27:50.130Z,48.63
2018-11-12T10:30:18.940Z,47.12
2018-11-12T10:32:48.218Z,47.41
2018-11-12T10:35:17.426Z,48.97
2018-11-12T10:37:45.970Z,48.47
2018-11-12T10:40:19.543Z,48.95
2018-11-12T10:42:48.178Z,47.13
2018-11-12T10:45:17.120Z,47.73
2018-11-12T10:47:46.570Z,49.50
2018-11-12T10:50:15.216Z,48.26
2018-11-12T10:52:43.743Z,47.54
2018-11-12T10:55:14.288Z,46.96
2018-11-12T10:57:43.551Z,47.57
2018-11-12T11:00:20.187Z,46.30
2018-11-12T11:02:54.480Z,46.77
2018-11-12T11:05:23.741Z,49.21
2018-11-12T11:07:53.247Z,48.76
2018-11-12T11:10:23.685Z,48.31
2018-11-12T11:12:52.345Z,47.61
2018-11-12T11:15:20.863Z,46.79
2018-11-12T11:17:49.603Z,45.55
2018-11-12T11:20:18.230Z,45.38
2018-11-12T11:22:47.104Z,43.64
2018-11-12T11:25:15.728Z,43.35
2018-11-12T11:27:44.224Z,45.23
2018-11-12T11:30:15.077Z,45.18
2018-11-12T11:32:43.719Z,46.09
2018-11-12T11:35:13.460Z,44.67
2018-11-12T11:37:42.020Z,43.71
2018-11-12T11:40:14.325Z,45.38
2018-11-12T11:42:42.988Z,45.82
2018-11-12T11:45:12.704Z,44.18
2018-11-12T11:47:41.938Z,45.45
2018-11-12T11:50:12.342Z,45.09
2018-11-12T11:52:40.861Z,43.26
2018-11-12T11:55:11.544Z,43.64
2018-11-12T11:57:40.424Z,44.81
2018-11-12T12:00:13.145Z,44.00
2018-11-12T12:02:42.177Z,42.04
2018-11-12T12:05:12.179Z,42.11
2018-11-12T12:07:40.725Z,45.03
2018-11-12T12:10:10.271Z,45.00
2018-11-12T12:12:38.805Z,42.71
2018-11-12T12:15:09.120Z,41.18
2018-11-12T12:17:37.752Z,41.55
2018-11-12T12:20:09.544Z,38.37
2018-11-12T12:22:39.472Z,40.27
2018-11-12T12:25:09.886Z,42.91
2018-11-12T12:27:38.781Z,41.89
2018-11-12T12:30:09.995Z,41.51
2018-11-12T12:32:38.505Z,41.56
2018-11-12T12:35:08.560Z,40.19
2018-11-12T12:37:37.126Z,42.00
2018-11-12T12:40:07.585Z,43.72
2018-11-12T12:42:36.681Z,42.13
2018-11-12T12:45:05.867Z,44.74
2018-11-12T12:47:34.371Z,45.85
2018-11-12T12:50:02.905Z,46.10
2018-11-12T12:52:31.409Z,46.73
2018-11-12T12:54:59.966Z,47.00
2018-11-12T12:57:29.105Z,46.45
2018-11-12T12:59:58.589Z,45.53
2018-11-12T13:02:27.686Z,46.06
2018-11-12T13:04:56.310Z,45.72
2018-11-12T13:07:24.828Z,46.25
2018-11-12T13:09:53.304Z,46.50
2018-11-12T13:12:21.955Z,47.23
2018-11-12T13:14:51.455Z,48.04
2018-11-12T13:17:19.905Z,47.91
2018-11-12T13:19:48.625Z,48.12
2018-11-12T13:22:17.045Z,47.82
2018-11-12T13:24:45.862Z,48.16
2018-11-12T13:27:14.407Z,47.96
2018-11-12T13:29:44.419Z,48.64
2018-11-12T13:32:12.961Z,48.87
2018-11-12T13:34:41.524Z,49.51
2018-11-12T13:37:10.149Z,49.96
2018-11-12T13:39:38.669Z,50.38
2018-11-12T13:42:07.685Z,51.00
2018-11-12T13:44:36.232Z,51.21
2018-11-12T13:47:04.764Z,51.58
2018-11-12T13:49:33.284Z,50.93
2018-11-12T13:52:01.887Z,51.19
2018-11-12T13:54:30.417Z,51.66
2018-11-12T13:56:58.917Z,52.19
2018-11-12T13:59:27.492Z,51.86
2018-11-12T14:01:56.654Z,52.11
2018-11-12T14:04:25.217Z,51.65
2018-11-12T14:06:53.827Z,51.50
2018-11-12T14:09:22.364Z,52.77
2018-11-12T14:11:50.950Z,51.99
2018-11-12T14:14:20.081Z,52.89
2018-11-12T14:16:48.560Z,52.49
2018-11-12T14:19:17.121Z,52.71
2018-11-12T14:21:45.902Z,52.77
2018-11-12T14:24:14.160Z,53.27
2018-11-12T14:26:42.765Z,52.90
2018-11-12T14:29:11.694Z,52.90
2018-11-12T14:31:40.196Z,52.75
2018-11-12T14:34:08.725Z,53.24
2018-11-12T14:36:37.707Z,53.11
2018-11-12T14:39:09.312Z,53.95
2018-11-12T14:41:37.989Z,54.14
2018-11-12T14:44:07.252Z,54.06
2018-11-12T14:46:35.747Z,54.58
2018-11-12T14:49:04.280Z,54.37
2018-11-12T14:51:32.899Z,54.22
2018-11-12T14:54:01.425Z,54.36
2018-11-12T14:56:29.939Z,54.62
2018-11-12T14:58:58.472Z,54.35
2018-11-12T15:01:27.350Z,54.77
2018-11-12T15:03:55.828Z,54.61
2018-11-12T15:06:24.344Z,54.81
2018-11-12T15:08:52.902Z,54.49
2018-11-12T15:11:21.444Z,54.48
2018-11-12T15:13:50.056Z,55.21
2018-11-12T15:16:18.605Z,54.71
2018-11-12T15:18:47.112Z,55.04
2018-11-12T15:21:16.333Z,54.49
2018-11-12T15:23:45.180Z,55.05
2018-11-12T15:26:13.680Z,55.49
2018-11-12T15:28:42.182Z,55.67
2018-11-12T15:31:10.704Z,55.82
2018-11-12T15:33:39.937Z,56.34
2018-11-12T15:36:09.557Z,56.45
2018-11-12T15:38:38.074Z,56.56
2018-11-12T15:41:06.847Z,57.20
2018-11-12T15:43:35.362Z,57.85
2018-11-12T15:46:03.876Z,58.21
2018-11-12T15:48:33.293Z,58.18
2018-11-12T15:51:01.925Z,58.28
2018-11-12T15:53:30.333Z,58.71
2018-11-12T15:55:58.861Z,59.31
2018-11-12T15:58:27.418Z,59.67
2018-11-12T16:00:55.962Z,59.73
2018-11-12T16:03:24.515Z,59.57
2018-11-12T16:05:54.133Z,59.86
2018-11-12T16:08:22.672Z,60.21
2018-11-12T16:10:51.185Z,60.14
2018-11-12T16:13:19.727Z,60.24
2018-11-12T16:15:48.232Z,60.74
2018-11-12T16:18:16.760Z,60.54
2018-11-12T16:20:45.305Z,60.85
2018-11-12T16:23:14.485Z,60.74
2018-11-12T16:25:43.756Z,60.87
2018-11-12T16:28:12.268Z,61.63
2018-11-12T16:30:40.780Z,61.24
2018-11-12T16:33:09.850Z,61.64
2018-11-12T16:35:40.105Z,61.91
2018-11-12T16:38:08.622Z,61.79
2018-11-12T16:40:37.804Z,62.06
2018-11-12T16:43:06.321Z,62.25
2018-11-12T16:45:34.835Z,61.67
2018-11-12T16:48:03.344Z,61.95
2018-11-12T16:50:31.832Z,62.17
2018-11-12T16:53:00.327Z,61.67
2018-11-12T16:55:28.972Z,62.31
2018-11-12T16:57:58.215Z,61.65
2018-11-12T17:00:28.102Z,61.77
2018-11-12T17:02:56.751Z,62.46
2018-11-12T17:05:26.544Z,62.17
2018-11-12T17:07:56.389Z,62.40
2018-11-12T17:10:26.769Z,62.47
2018-11-12T17:12:56.139Z,63.03
2018-11-12T17:15:25.894Z,62.93
2018-11-12T17:17:54.516Z,62.29
2018-11-12T17:20:23.485Z,62.27
2018-11-12T17:22:52.250Z,62.40
2018-11-12T17:25:20.954Z,62.73
2018-11-12T17:27:49.721Z,62.99
2018-11-12T17:30:20.343Z,63.03
2018-11-12T17:32:49.257Z,63.63
2018-11-12T17:35:20.608Z,63.01
2018-11-12T17:37:49.189Z,63.71
2018-11-12T17:40:19.444Z,63.79
2018-11-12T17:42:49.359Z,63.81
2018-11-12T17:45:20.493Z,64.10
2018-11-12T17:47:56.585Z,64.00
2018-11-12T17:50:25.092Z,64.13
2018-11-12T17:52:54.330Z,64.61
2018-11-12T17:55:23.201Z,64.37
2018-11-12T17:57:52.238Z,65.11
2018-11-12T18:00:24.242Z,65.20
2018-11-12T18:02:52.764Z,64.82
2018-11-12T18:05:21.573Z,64.86
2018-11-12T18:07:50.756Z,64.91
2018-11-12T18:10:20.092Z,65.02
2018-11-12T18:12:48.723Z,64.59
2018-11-12T18:15:18.752Z,65.12
2018-11-12T18:17:47.412Z,66.17
2018-11-12T18:20:19.684Z,65.59
2018-11-12T18:22:48.508Z,65.51
2018-11-12T18:25:17.464Z,65.61
2018-11-12T18:27:46.172Z,65.45
2018-11-12T18:30:19.942Z,65.56
2018-11-12T18:32:49.705Z,66.15
2018-11-12T18:35:22.017Z,66.00
2018-11-12T18:37:55.583Z,66.07
2018-11-12T18:40:25.563Z,65.28
2018-11-12T18:42:54.131Z,65.52
2018-11-12T18:45:25.390Z,65.63
2018-11-12T18:47:53.996Z,65.15
2018-11-12T18:50:26.881Z,66.10
2018-11-12T18:52:55.483Z,65.46
2018-11-12T18:55:25.026Z,65.62
2018-11-12T18:57:53.777Z,65.47
2018-11-12T19:00:23.613Z,65.02
2018-11-12T19:02:52.394Z,65.97
2018-11-12T19:05:22.250Z,65.47
2018-11-12T19:07:52.036Z,65.74
2018-11-12T19:10:23.284Z,66.07
2018-11-12T19:12:53.007Z,65.78
2018-11-12T19:15:23.137Z,65.69
2018-11-12T19:17:54.795Z,65.19
2018-11-12T19:20:24.112Z,65.94
2018-11-12T19:22:52.998Z,65.71
2018-11-12T19:25:21.484Z,66.10
2018-11-12T19:27:56.608Z,65.50
2018-11-12T19:30:26.216Z,65.10
2018-11-12T19:32:55.509Z,66.04
2018-11-12T19:35:25.423Z,65.92
2018-11-12T19:37:53.995Z,65.56
2018-11-12T19:40:23.884Z,65.56
2018-11-12T19:42:53.880Z,65.88
2018-11-12T19:45:22.396Z,65.80
2018-11-12T19:47:51.848Z,66.32
2018-11-12T19:50:21.542Z,65.71
2018-11-12T19:52:51.305Z,64.94
2018-11-12T19:55:20.421Z,65.84
2018-11-12T19:57:49.445Z,65.99
2018-11-12T20:00:19.924Z,66.01
2018-11-12T20:02:49.637Z,66.13
2018-11-12T20:05:18.670Z,66.28
2018-11-12T20:07:47.211Z,66.42
2018-11-12T20:10:17.414Z,66.36
2018-11-12T20:12:45.950Z,65.91
2018-11-12T20:15:15.895Z,66.12
2018-11-12T20:17:45.471Z,65.76
2018-11-12T20:20:17.528Z,66.16
2018-11-12T20:22:46.824Z,66.22
2018-11-12T20:25:16.807Z,66.19
2018-11-12T20:27:45.657Z,66.67
2018-11-12T20:30:16.821Z,66.11
2018-11-12T20:32:46.029Z,65.91
2018-11-12T20:35:14.529Z,66.50
2018-11-12T20:37:43.048Z,66.64
2018-11-12T20:40:12.584Z,67.18
2018-11-12T20:42:41.901Z,67.19
2018-11-12T20:45:11.991Z,67.10
2018-11-12T20:47:41.639Z,67.79
2018-11-12T20:50:12.417Z,67.36
2018-11-12T20:52:41.356Z,67.36
2018-11-12T20:55:10.920Z,67.16
2018-11-12T20:57:40.097Z,67.30
2018-11-12T21:00:14.061Z,67.31
2018-11-12T21:02:44.166Z,67.45
2018-11-12T21:05:13.526Z,67.51
2018-11-12T21:07:42.538Z,68.29
2018-11-12T21:10:13.662Z,67.63
2018-11-12T21:12:42.349Z,67.95
2018-11-12T21:15:12.652Z,68.57
2018-11-12T21:17:42.061Z,68.23
2018-11-12T21:20:13.536Z,68.29
2018-11-12T21:22:42.995Z,67.97
2018-11-12T21:25:13.021Z,68.42
2018-11-12T21:27:41.616Z,67.77
2018-11-12T21:30:14.105Z,68.66
2018-11-12T21:32:42.650Z,68.21
2018-11-12T21:35:11.693Z,68.10
2018-11-12T21:37:40.270Z,68.41
2018-11-12T21:40:12.357Z,68.54
2018-11-12T21:42:41.041Z,68.14
2018-11-12T21:45:11.340Z,68.90
2018-11-12T21:47:40.873Z,68.52
2018-11-12T21:50:11.458Z,68.31
2018-11-12T21:52:40.710Z,67.49
2018-11-12T21:55:10.494Z,68.16
2018-11-12T21:57:40.614Z,68.35
2018-11-12T22:00:20.072Z,69.06
2018-11-12T22:02:50.070Z,68.55
2018-11-12T22:05:19.850Z,68.25
2018-11-12T22:07:49.118Z,69.00
2018-11-12T22:10:18.689Z,68.74
2018-11-12T22:12:50.357Z,69.10
2018-11-12T22:15:19.747Z,69.19
2018-11-12T22:17:48.756Z,68.53
2018-11-12T22:20:19.798Z,68.95
2018-11-12T22:22:48.426Z,69.11
2018-11-12T22:25:19.415Z,69.17
2018-11-12T22:27:48.629Z,69.31
2018-11-12T22:30:23.761Z,68.86
2018-11-12T22:32:53.194Z,68.65
2018-11-12T22:35:23.164Z,68.75
2018-11-12T22:37:53.359Z,68.90
2018-11-12T22:40:22.659Z,68.23
2018-11-12T22:42:52.146Z,68.42
2018-11-12T22:45:24.888Z,68.81
2018-11-12T22:47:53.696Z,69.26
2018-11-12T22:50:22.236Z,69.23
2018-11-12T22:52:50.885Z,68.65
2018-11-12T22:55:20.158Z,68.12
2018-11-12T22:57:48.729Z,68.15
2018-11-12T23:00:24.862Z,68.49
2018-11-12T23:02:53.959Z,68.43
2018-11-12T23:05:23.281Z,68.67
2018-11-12T23:07:52.447Z,69.19
2018-11-12T23:10:21.623Z,68.64
2018-11-12T23:12:50.240Z,68.02
2018-11-12T23:15:19.390Z,68.54
2018-11-12T23:17:48.052Z,69.07
2018-11-12T23:20:18.652Z,68.80
2018-11-12T23:22:48.360Z,68.70
2018-11-12T23:25:17.070Z,68.74
2018-11-12T23:27:46.979Z,68.48
2018-11-12T23:30:17.924Z,68.53
2018-11-12T23:32:46.776Z,68.56
2018-11-12T23:35:17.769Z,69.34
2018-11-12T23:37:46.964Z,69.02
2018-11-12T23:40:15.748Z,68.24
2018-11-12T23:42:44.732Z,68.52
2018-11-12T23:45:13.320Z,68.96
2018-11-12T23:47:41.833Z,68.64
2018-11-12T23:50:14.143Z,68.93
2018-11-12T23:52:43.180Z,69.21
2018-11-12T23:55:12.778Z,68.91
2018-11-12T23:57:41.363Z,68.93
